Time;durP1;ratioP1;P1;durP2;ratioP2;P2;SDS_P1;SDS_P2;PMS_P1;PMS_P2;Temp;Humidity;BMP_temperature;BMP_pressure;BME280_temperature;BME280_humidity;BME280_pressure;Samples;Min_cycle;Max_cycle;Signal;HPM_P1;HPM_P2
2021/10/29 00:00:51;;;;;;;;;;;;;;;6.61;100.00;100896.22;5152551;27;19968;-76
2021/10/29 00:03:17;;;;;;;;;;;;;;;6.56;100.00;100901.91;5152928;27;19981;-76
2021/10/29 00:05:43;;;;;;;;;;;;;;;6.50;100.00;100895.03;5152918;27;20444;-76
2021/10/29 00:08:10;;;;;;;;;;;;;;;6.49;100.00;100895.13;5153181;27;19934;-75
2021/10/29 00:10:36;;;;;;;;;;;;;;;6.49;100.00;100892.44;5151477;27;19969;-75
2021/10/29 00:13:03;;;;;;;;;;;;;;;6.48;100.00;100891.59;5153024;27;19962;-76
2021/10/29 00:15:30;;;;;;;;;;;;;;;6.44;100.00;100892.75;5153117;27;20191;-77
2021/10/29 00:17:57;;;;;;;;;;;;;;;6.37;100.00;100888.66;5152667;27;20018;-76
2021/10/29 00:20:24;;;;;;;;;;;;;;;6.32;100.00;100888.06;5152497;27;19965;-76
2021/10/29 00:22:50;;;;;;;;;;;;;;;6.24;100.00;100890.38;5152628;27;20014;-76
2021/10/29 00:25:16;;;;;;;;;;;;;;;6.17;100.00;100895.25;5152746;27;20037;-76
2021/10/29 00:27:43;;;;;;;;;;;;;;;6.08;100.00;100891.31;5152725;27;19950;-75
2021/10/29 00:30:10;;;;;;;;;;;;;;;6.04;100.00;100889.75;5152627;27;19926;-76
2021/10/29 00:32:37;;;;;;;;;;;;;;;6.06;100.00;100885.13;5152749;27;19963;-75
2021/10/29 00:35:05;;;;;;;;;;;;;;;6.10;100.00;100883.97;5152488;27;19957;-76
2021/10/29 00:37:37;;;;;;;;;;;;;;;6.14;100.00;100884.69;5153069;27;19954;-75
2021/10/29 00:40:04;;;;;;;;;;;;;;;6.14;100.00;100884.69;5152234;27;19938;-76
2021/10/29 00:42:30;;;;;;;;;;;;;;;6.11;100.00;100885.72;5151819;27;19935;-75
2021/10/29 00:44:56;;;;;;;;;;;;;;;6.07;100.00;100876.09;5152651;27;19962;-75
2021/10/29 00:47:23;;;;;;;;;;;;;;;6.05;100.00;100877.13;5152793;27;20318;-75
2021/10/29 00:49:50;;;;;;;;;;;;;;;6.09;100.00;100878.69;5152615;27;20376;-75
2021/10/29 00:52:17;;;;;;;;;;;;;;;6.05;100.00;100869.91;5152434;27;19931;-75
2021/10/29 00:54:44;;;;;;;;;;;;;;;6.01;100.00;100871.06;5152546;27;20366;-76
2021/10/29 00:57:10;;;;;;;;;;;;;;;5.97;100.00;100869.47;5152542;27;20017;-75
2021/10/29 00:59:37;;;;;;;;;;;;;;;5.91;100.00;100862.63;5152959;27;20403;-75
2021/10/29 01:02:03;;;;;;;;;;;;;;;5.89;100.00;100869.91;5150746;27;19923;-76
2021/10/29 01:04:30;;;;;;;;;;;;;;;5.83;100.00;100857.69;5152613;27;20309;-75
2021/10/29 01:06:56;;;;;;;;;;;;;;;5.84;100.00;100874.75;5152374;27;19967;-75
2021/10/29 01:09:24;;;;;;;;;;;;;;;5.78;100.00;100862.47;5152704;27;19944;-75
2021/10/29 01:11:50;;;;;;;;;;;;;;;5.82;100.00;100857.78;5155185;27;19923;-75
2021/10/29 01:14:17;;;;;;;;;;;;;;;5.78;100.00;100862.47;5155990;27;20309;-75
2021/10/29 01:16:43;;;;;;;;;;;;;;;5.74;100.00;100855.53;5156522;27;20009;-76
2021/10/29 01:19:10;;;;;;;;;;;;;;;5.72;100.00;100853.88;5155948;27;20383;-75
2021/10/29 01:21:38;;;;;;;;;;;;;;;5.69;100.00;100854.94;5155946;27;19923;-75
2021/10/29 01:24:04;;;;;;;;;;;;;;;5.75;100.00;100843.81;5155838;27;20362;-75
2021/10/29 01:26:31;;;;;;;;;;;;;;;5.74;100.00;100852.00;5156025;27;20033;-75
2021/10/29 01:28:57;;;;;;;;;;;;;;;5.63;100.00;100856.16;5155820;27;19984;-75
2021/10/29 01:31:24;;;;;;;;;;;;;;;5.56;100.00;100853.91;5155147;27;19924;-75
2021/10/29 01:33:50;;;;;;;;;;;;;;;5.59;100.00;100843.00;5156079;27;19927;-76
2021/10/29 01:36:16;;;;;;;;;;;;;;;5.56;100.00;100848.53;5155625;27;20392;-75
2021/10/29 01:38:45;;;;;;;;;;;;;;;5.57;100.00;100839.50;5156172;27;20022;-74
2021/10/29 01:41:11;;;;;;;;;;;;;;;5.61;100.00;100843.75;5155388;27;19923;-75
2021/10/29 01:43:38;;;;;;;;;;;;;;;5.63;100.00;100829.25;5155815;27;20027;-75
2021/10/29 01:46:05;;;;;;;;;;;;;;;5.63;100.00;100839.16;5155501;27;20018;-75
2021/10/29 01:48:31;;;;;;;;;;;;;;;5.63;100.00;100839.16;5155649;27;20391;-75
2021/10/29 01:50:57;;;;;;;;;;;;;;;5.61;100.00;100831.19;5155257;27;20619;-75
2021/10/29 01:53:23;;;;;;;;;;;;;;;5.55;100.00;100834.22;5155294;27;19961;-75
2021/10/29 01:55:51;;;;;;;;;;;;;;;5.45;100.00;100838.38;5155531;27;20269;-75
2021/10/29 01:58:17;;;;;;;;;;;;;;;5.35;100.00;100832.69;5155260;27;19923;-75
2021/10/29 02:00:44;;;;;;;;;;;;;;;5.32;100.00;100825.66;5155100;27;19923;-75
2021/10/29 02:03:10;;;;;;;;;;;;;;;5.29;100.00;100835.72;5154045;27;20013;-75
2021/10/29 02:05:37;;;;;;;;;;;;;;;5.22;100.00;100847.81;5154977;27;19923;-75
2021/10/29 02:08:04;;;;;;;;;;;;;;;5.05;100.00;100841.56;5155197;27;19923;-75
2021/10/29 02:10:30;;;;;;;;;;;;;;;4.97;100.00;100835.72;5154639;27;19958;-75
2021/10/29 02:12:58;;;;;;;;;;;;;;;5.03;100.00;100836.25;5155015;27;19927;-75
2021/10/29 02:15:24;;;;;;;;;;;;;;;5.03;100.00;100830.00;5154371;27;19927;-75
2021/10/29 02:17:50;;;;;;;;;;;;;;;4.95;100.00;100830.44;5155048;27;20026;-75
2021/10/29 02:20:16;;;;;;;;;;;;;;;4.84;100.00;100824.78;5154812;27;19959;-75
2021/10/29 02:22:43;;;;;;;;;;;;;;;4.72;100.00;100820.97;5154677;27;19955;-75
2021/10/29 02:25:09;;;;;;;;;;;;;;;4.65;100.00;100830.28;5153457;27;20344;-75
2021/10/29 02:27:36;;;;;;;;;;;;;;;4.53;100.00;100824.66;5154277;27;20628;-75
2021/10/29 02:30:04;;;;;;;;;;;;;;;4.48;100.00;100821.34;5154596;27;20034;-75
2021/10/29 02:32:31;;;;;;;;;;;;;;;4.45;100.00;100823.31;5154564;27;20352;-75
2021/10/29 02:34:57;;;;;;;;;;;;;;;4.38;100.00;100821.91;5154702;27;19923;-75
2021/10/29 02:37:23;;;;;;;;;;;;;;;4.30;100.00;100820.53;5154598;27;19958;-75
2021/10/29 02:39:50;;;;;;;;;;;;;;;4.24;100.00;100817.28;5152934;27;19929;-75
2021/10/29 02:42:16;;;;;;;;;;;;;;;4.13;100.00;100824.09;5154288;27;20021;-75
2021/10/29 02:44:42;;;;;;;;;;;;;;;4.07;100.00;100824.41;5154343;27;19930;-75
2021/10/29 02:47:11;;;;;;;;;;;;;;;4.00;100.00;100823.00;5154012;27;19927;-75
2021/10/29 02:49:37;;;;;;;;;;;;;;;3.96;100.00;100824.13;5154227;27;19923;-75
2021/10/29 02:52:04;;;;;;;;;;;;;;;3.87;100.00;100821.91;5154030;27;19955;-75
2021/10/29 02:54:30;;;;;;;;;;;;;;;3.73;100.00;100827.97;5154229;27;19995;-76
2021/10/29 02:56:57;;;;;;;;;;;;;;;3.64;100.00;100819.44;5154110;27;20463;-76
2021/10/29 02:59:23;;;;;;;;;;;;;;;3.56;100.00;100836.91;5154277;27;19927;-75
2021/10/29 03:01:49;;;;;;;;;;;;;;;3.53;100.00;100827.19;5153844;27;20455;-75
2021/10/29 03:04:17;;;;;;;;;;;;;;;3.55;100.00;100817.22;5153506;27;20014;-75
2021/10/29 03:06:44;;;;;;;;;;;;;;;3.47;100.00;100825.66;5153794;27;20030;-75
2021/10/29 03:09:10;;;;;;;;;;;;;;;3.49;100.00;100821.09;5154496;27;19979;-75
2021/10/29 03:11:36;;;;;;;;;;;;;;;3.39;100.00;100827.84;5153480;27;19962;-75
2021/10/29 03:14:02;;;;;;;;;;;;;;;3.34;100.00;100829.88;5153818;27;20399;-75
2021/10/29 03:16:29;;;;;;;;;;;;;;;3.36;100.00;100828.00;5154275;27;19955;-75
2021/10/29 03:18:55;;;;;;;;;;;;;;;3.47;100.00;100820.28;5152399;27;20010;-76
2021/10/29 03:21:23;;;;;;;;;;;;;;;3.57;100.00;100820.72;5153221;27;20295;-75
2021/10/29 03:23:49;;;;;;;;;;;;;;;3.63;100.00;100823.06;5153868;27;19977;-75
2021/10/29 03:26:16;;;;;;;;;;;;;;;3.58;100.00;100827.81;5153595;27;19927;-75
2021/10/29 03:28:42;;;;;;;;;;;;;;;3.46;100.00;100831.09;5153491;27;20016;-75
2021/10/29 03:31:08;;;;;;;;;;;;;;;3.41;100.00;100838.50;5153191;27;20411;-75
2021/10/29 03:33:38;;;;;;;;;;;;;;;3.36;100.00;100836.06;5153032;27;20425;-75
2021/10/29 03:36:04;;;;;;;;;;;;;;;3.33;100.00;100838.91;5153543;27;19923;-75
2021/10/29 03:38:48;;;;;;;;;;;;;;;3.35;100.00;100832.53;5153396;27;20534;-73
2021/10/29 03:41:17;;;;;;;;;;;;;;;3.34;100.00;100836.16;5152911;27;19975;-75
2021/10/29 03:43:47;;;;;;;;;;;;;;;3.31;100.00;100838.09;5153519;27;19931;-75
2021/10/29 03:46:16;;;;;;;;;;;;;;;3.28;100.00;100831.06;5153262;27;19923;-76
2021/10/29 03:48:50;;;;;;;;;;;;;;;3.32;100.00;100824.59;5153311;27;20037;-76
2021/10/29 03:51:21;;;;;;;;;;;;;;;3.32;100.00;100827.28;5153115;27;20017;-76
2021/10/29 03:53:55;;;;;;;;;;;;;;;3.29;100.00;100834.63;5151750;27;20435;-75
2021/10/29 03:56:22;;;;;;;;;;;;;;;3.31;100.00;100824.69;5153260;27;19923;-75
2021/10/29 03:58:50;;;;;;;;;;;;;;;3.31;100.00;100830.06;5153244;27;19923;-75
2021/10/29 04:01:16;;;;;;;;;;;;;;;3.33;100.00;100825.50;5152880;27;20025;-76
2021/10/29 04:03:43;;;;;;;;;;;;;;;3.33;100.00;100822.81;5153034;27;20351;-76
2021/10/29 04:06:09;;;;;;;;;;;;;;;3.28;100.00;100824.84;5153037;27;20010;-76
2021/10/29 04:08:36;;;;;;;;;;;;;;;3.27;100.00;100821.28;5152986;27;20474;-76
2021/10/29 04:11:04;;;;;;;;;;;;;;;3.17;100.00;100823.56;5151199;27;20022;-76
2021/10/29 04:13:34;;;;;;;;;;;;;;;3.12;100.00;100820.22;5152632;27;20288;-75
2021/10/29 04:16:02;;;;;;;;;;;;;;;3.17;100.00;100823.56;5153118;27;20374;-74
2021/10/29 04:18:28;;;;;;;;;;;;;;;3.15;100.00;100825.47;5147687;27;20038;-75
2021/10/29 04:20:54;;;;;;;;;;;;;;;3.12;100.00;100830.09;5152875;27;19957;-75
2021/10/29 04:23:21;;;;;;;;;;;;;;;3.06;100.00;100827.69;5153016;27;19977;-74
2021/10/29 04:25:47;;;;;;;;;;;;;;;3.04;100.00;100835.81;5137668;27;19934;-75
2021/10/29 04:28:15;;;;;;;;;;;;;;;2.94;100.00;100823.78;5133265;27;19966;-68
2021/10/29 04:30:43;;;;;;;;;;;;;;;2.89;100.00;100828.53;5145529;27;20009;-66
2021/10/29 04:33:10;;;;;;;;;;;;;;;2.88;100.00;100821.41;5150985;27;19923;-66
2021/10/29 04:35:37;;;;;;;;;;;;;;;2.82;100.00;100827.94;5133037;27;20297;-66
2021/10/29 04:38:05;;;;;;;;;;;;;;;2.78;100.00;100821.84;5132916;27;19927;-66
2021/10/29 04:40:31;;;;;;;;;;;;;;;2.81;100.00;100821.69;5131886;28;19958;-67
2021/10/29 04:42:57;;;;;;;;;;;;;;;2.79;100.00;100833.44;5135086;27;19961;-66
2021/10/29 04:45:25;;;;;;;;;;;;;;;2.78;100.00;100826.31;5151887;27;19923;-66
2021/10/29 04:47:51;;;;;;;;;;;;;;;2.80;100.00;100828.00;5143803;27;20367;-66
2021/10/29 04:50:17;;;;;;;;;;;;;;;2.89;100.00;100815.13;5140745;27;19936;-66
2021/10/29 04:52:44;;;;;;;;;;;;;;;2.93;100.00;100824.75;5135492;27;20010;-66
2021/10/29 04:55:10;;;;;;;;;;;;;;;2.92;100.00;100826.53;5134466;27;20391;-66
2021/10/29 04:57:36;;;;;;;;;;;;;;;2.97;100.00;100823.66;5142370;27;20022;-66
2021/10/29 05:00:05;;;;;;;;;;;;;;;2.93;100.00;100824.75;5155957;27;20046;-66
2021/10/29 05:02:34;;;;;;;;;;;;;;;2.91;100.00;100823.94;5156304;27;19923;-66
2021/10/29 05:05:02;;;;;;;;;;;;;;;2.91;100.00;100822.13;5156256;27;20351;-66
2021/10/29 05:07:28;;;;;;;;;;;;;;;2.93;100.00;100824.75;5155771;27;19930;-67
2021/10/29 05:09:55;;;;;;;;;;;;;;;2.84;100.00;100824.22;5155491;27;19923;-67
2021/10/29 05:12:21;;;;;;;;;;;;;;;2.79;100.00;100828.97;5155720;27;19993;-66
2021/10/29 05:14:47;;;;;;;;;;;;;;;2.72;100.00;100822.13;5156133;27;19958;-67
2021/10/29 05:17:13;;;;;;;;;;;;;;;2.73;100.00;100823.00;5155578;27;21167;-67
2021/10/29 05:19:41;;;;;;;;;;;;;;;2.83;100.00;100818.94;5151614;27;20026;-66
2021/10/29 05:22:07;;;;;;;;;;;;;;;2.89;100.00;100818.66;5156293;27;19969;-67
2021/10/29 05:24:34;;;;;;;;;;;;;;;2.82;100.00;100814.53;5156006;27;19923;-66
2021/10/29 05:27:00;;;;;;;;;;;;;;;2.75;100.00;100819.28;5155935;27;20343;-66
2021/10/29 05:29:26;;;;;;;;;;;;;;;2.72;100.00;100815.91;5155372;27;19962;-67
2021/10/29 05:31:53;;;;;;;;;;;;;;;2.68;100.00;100824.06;5155794;27;19966;-67
2021/10/29 05:34:20;;;;;;;;;;;;;;;2.73;100.00;100815.81;5145992;27;19935;-68
2021/10/29 05:36:48;;;;;;;;;;;;;;;2.71;100.00;100815.00;5145321;27;20376;-67
2021/10/29 05:39:15;;;;;;;;;;;;;;;2.70;100.00;100815.97;5135760;27;20446;-68
2021/10/29 05:41:47;;;;;;;;;;;;;;;2.72;100.00;100815.91;5142962;27;20013;-68
2021/10/29 05:44:13;;;;;;;;;;;;;;;2.64;100.00;100814.44;5141070;27;19927;-68
2021/10/29 05:46:42;;;;;;;;;;;;;;;2.61;100.00;100819.94;5146913;27;19923;-69
2021/10/29 05:49:10;;;;;;;;;;;;;;;2.66;100.00;100817.94;5147647;27;19938;-69
2021/10/29 05:51:42;;;;;;;;;;;;;;;2.68;100.00;100828.56;5153595;27;20331;-69
2021/10/29 05:54:12;;;;;;;;;;;;;;;2.61;100.00;100832.50;5138635;27;20371;-69
2021/10/29 05:56:38;;;;;;;;;;;;;;;2.51;100.00;100832.03;5153160;27;19972;-68
2021/10/29 05:59:05;;;;;;;;;;;;;;;2.44;100.00;100836.78;5154913;27;20376;-68
2021/10/29 06:01:32;;;;;;;;;;;;;;;2.42;100.00;100836.00;5149815;27;20348;-69
2021/10/29 06:03:58;;;;;;;;;;;;;;;2.44;100.00;100834.13;5154545;27;20296;-68
2021/10/29 06:06:25;;;;;;;;;;;;;;;2.47;100.00;100836.69;5154524;27;19923;-68
2021/10/29 06:08:51;;;;;;;;;;;;;;;2.50;100.00;100836.53;5154676;27;19931;-67
2021/10/29 06:11:19;;;;;;;;;;;;;;;2.50;100.00;100839.22;5154034;27;19973;-67
2021/10/29 06:13:46;;;;;;;;;;;;;;;2.49;100.00;100836.59;5154898;27;19929;-67
2021/10/29 06:16:13;;;;;;;;;;;;;;;2.47;100.00;100836.69;5140391;27;19974;-67
2021/10/29 06:18:39;;;;;;;;;;;;;;;2.49;100.00;100837.47;5142722;27;19931;-68
2021/10/29 06:21:05;;;;;;;;;;;;;;;2.54;100.00;100841.75;5152652;27;19973;-68
2021/10/29 06:23:38;;;;;;;;;;;;;;;2.61;100.00;100840.53;5154526;27;20266;-67
2021/10/29 06:26:11;;;;;;;;;;;;;;;2.60;100.00;100847.69;5154446;27;19923;-67
2021/10/29 06:28:39;;;;;;;;;;;;;;;2.70;100.00;100839.22;5153718;27;19930;-68
2021/10/29 06:31:05;;;;;;;;;;;;;;;2.76;100.00;100837.13;5153126;27;20041;-68
2021/10/29 06:33:31;;;;;;;;;;;;;;;2.84;100.00;100843.00;5152370;27;20010;-68
2021/10/29 06:35:57;;;;;;;;;;;;;;;2.88;100.00;100837.50;5161894;27;19966;-69
2021/10/29 06:38:24;;;;;;;;;;;;;;;2.96;100.00;100846.06;5163892;27;20388;-68
2021/10/29 06:40:51;;;;;;;;;;;;;;;3.07;100.00;100849.06;5143730;27;20019;-70
2021/10/29 06:43:23;;;;;;;;;;;;;;;3.16;100.00;100842.41;5142224;27;19927;-70
2021/10/29 06:46:13;;;;;;;;;;;;;;;3.25;100.00;100852.69;5137294;27;19923;-69
2021/10/29 06:48:51;;;;;;;;;;;;;;;3.32;100.00;100855.94;5133198;27;20329;-69
2021/10/29 06:59:36;;;;;;;;;;;;;;;3.61;100.00;100849.13;5133678;27;20264;-67
2021/10/29 07:02:24;;;;;;;;;;;;;;;3.66;100.00;100852.47;5145168;27;19923;-67
2021/10/29 07:40:42;;;;;;;;;;;;;;;6.16;100.00;100837.81;5138052;27;20323;-65
2021/10/29 07:43:10;;;;;;;;;;;;;;;6.53;100.00;100831.94;5152775;27;20337;-64
2021/10/29 07:45:36;;;;;;;;;;;;;;;6.97;100.00;100830.09;5152701;27;19929;-65
2021/10/29 07:48:03;;;;;;;;;;;;;;;7.29;100.00;100822.59;5152672;27;20352;-64
2021/10/29 07:50:31;;;;;;;;;;;;;;;7.47;100.00;100817.81;5134637;27;19956;-64
2021/10/29 07:52:59;;;;;;;;;;;;;;;7.73;100.00;100819.75;5132210;27;19955;-64
2021/10/29 07:55:26;;;;;;;;;;;;;;;7.89;100.00;100825.81;5148007;27;19929;-64
2021/10/29 07:57:58;;;;;;;;;;;;;;;7.91;100.00;100823.00;5147730;27;19969;-65
2021/10/29 08:00:25;;;;;;;;;;;;;;;8.02;100.00;100825.84;5152380;27;19931;-65
2021/10/29 08:02:51;;;;;;;;;;;;;;;8.23;100.00;100817.22;5152299;27;20013;-65
2021/10/29 08:05:18;;;;;;;;;;;;;;;8.38;100.00;100818.84;5152922;27;20412;-65
2021/10/29 08:07:45;;;;;;;;;;;;;;;8.56;100.00;100813.13;5152813;27;19924;-65
2021/10/29 08:10:12;;;;;;;;;;;;;;;8.91;100.00;100823.25;5152218;27;19970;-65
2021/10/29 08:12:39;;;;;;;;;;;;;;;9.18;100.00;100825.81;5152681;27;20010;-65
2021/10/29 08:15:06;;;;;;;;;;;;;;;9.50;100.00;100817.97;5152809;27;19923;-65
2021/10/29 08:17:34;;;;;;;;;;;;;;;9.95;100.00;100825.41;5152426;27;20134;-65
2021/10/29 08:20:01;;;;;;;;;;;;;;;10.13;100.00;100820.41;5154457;27;20353;-64
2021/10/29 08:22:28;;;;;;;;;;;;;;;10.21;100.00;100820.69;5156033;27;19939;-65
2021/10/29 08:24:55;;;;;;;;;;;;;;;10.47;100.00;100812.34;5135231;27;20448;-66
2021/10/29 08:27:22;;;;;;;;;;;;;;;10.42;100.00;100811.00;5140693;27;19923;-65
2021/10/29 08:29:48;;;;;;;;;;;;;;;10.36;100.00;100813.22;5153257;27;19926;-65
2021/10/29 08:32:15;;;;;;;;;;;;;;;10.40;100.00;100810.28;5143081;27;20050;-65
2021/10/29 08:34:42;;;;;;;;;;;;;;;10.62;100.00;100817.56;5155013;27;19923;-65
2021/10/29 08:37:08;;;;;;;;;;;;;;;10.41;100.00;100810.16;5156419;27;20303;-65
2021/10/29 08:39:37;;;;;;;;;;;;;;;10.62;100.00;100815.72;5155828;27;20392;-65
2021/10/29 08:42:05;;;;;;;;;;;;;;;10.72;100.00;100808.53;5156283;27;19927;-65
2021/10/29 08:44:33;;;;;;;;;;;;;;;10.96;100.00;100812.13;5154824;27;19923;-65
2021/10/29 08:47:02;;;;;;;;;;;;;;;11.48;100.00;100812.38;5156770;27;20124;-65
2021/10/29 08:49:28;;;;;;;;;;;;;;;11.87;100.00;100805.41;5148534;27;19930;-65
2021/10/29 08:51:54;;;;;;;;;;;;;;;12.26;100.00;100799.41;5156492;27;19927;-66
2021/10/29 08:54:21;;;;;;;;;;;;;;;12.63;100.00;100803.50;5147930;27;20031;-66
2021/10/29 08:56:47;;;;;;;;;;;;;;;12.54;100.00;100797.00;5156318;27;19963;-66
2021/10/29 08:59:17;;;;;;;;;;;;;;;12.44;100.00;100796.06;5147474;27;20011;-65
2021/10/29 09:01:48;;;;;;;;;;;;;;;12.65;100.00;100794.16;5135388;27;19930;-65
2021/10/29 09:04:15;;;;;;;;;;;;;;;12.90;100.00;100781.94;5151253;27;19923;-66
2021/10/29 09:06:47;;;;;;;;;;;;;;;12.36;100.00;100791.31;5155018;27;19923;-65
2021/10/29 09:09:28;;;;;;;;;;;;;;;11.40;100.00;100788.56;5144360;27;19986;-66
2021/10/29 09:12:12;;;;;;;;;;;;;;;11.15;100.00;100797.88;5149229;27;20396;-65
2021/10/29 09:31:33;;;;;;;;;;;;;;;11.91;100.00;100783.41;5110736;27;19924;-66
2021/10/29 09:34:01;;;;;;;;;;;;;;;12.31;100.00;100782.69;5150438;27;19923;-66
2021/10/29 09:36:35;;;;;;;;;;;;;;;12.44;100.00;100785.19;5150588;27;20273;-66
2021/10/29 09:39:05;;;;;;;;;;;;;;;12.81;100.00;100788.19;5150677;27;19927;-65
2021/10/29 09:42:03;;;;;;;;;;;;;;;13.17;100.00;100777.69;5143433;27;19975;-66
2021/10/29 09:44:40;;;;;;;;;;;;;;;13.18;100.00;100784.03;5144185;27;19968;-66
2021/10/29 09:47:08;;;;;;;;;;;;;;;12.88;100.00;100773.03;5153001;27;19962;-66
2021/10/29 09:49:38;;;;;;;;;;;;;;;12.90;100.00;100779.19;5151023;27;20449;-65
2021/10/29 09:54:54;;;;;;;;;;;;;;;12.80;100.00;100791.94;5120976;27;19923;-65
2021/10/29 09:57:22;;;;;;;;;;;;;;;12.47;100.00;100791.22;5147964;27;20345;-65
2021/10/29 09:59:50;;;;;;;;;;;;;;;12.35;100.00;100781.44;5134047;27;20309;-65
2021/10/29 10:02:19;;;;;;;;;;;;;;;12.46;100.00;100784.03;5134495;27;20010;-65
2021/10/29 10:04:45;;;;;;;;;;;;;;;12.48;100.00;100786.63;5150512;27;19923;-65
2021/10/29 10:07:12;;;;;;;;;;;;;;;12.81;100.00;100790.94;5136228;27;19927;-65
2021/10/29 10:09:40;;;;;;;;;;;;;;;12.43;100.00;100781.59;5149832;27;20014;-64
2021/10/29 10:12:07;;;;;;;;;;;;;;;12.47;100.00;100783.06;5142787;27;19923;-64
2021/10/29 10:14:34;;;;;;;;;;;;;;;12.36;100.00;100784.00;5154799;27;20444;-65
2021/10/29 10:17:01;;;;;;;;;;;;;;;12.43;100.00;100789.78;5151910;27;20021;-65
2021/10/29 10:19:28;;;;;;;;;;;;;;;12.33;100.00;100784.28;5154691;27;19923;-65
2021/10/29 10:21:56;;;;;;;;;;;;;;;12.33;100.00;100783.41;5151602;27;19931;-65
2021/10/29 10:24:27;;;;;;;;;;;;;;;12.65;100.00;100783.25;5150291;27;19927;-66
2021/10/29 10:27:21;;;;;;;;;;;;;;;12.74;100.00;100773.41;5154930;27;19923;-66
2021/10/29 10:29:58;;;;;;;;;;;;;;;13.16;100.00;100769.66;5138693;27;19927;-66
2021/10/29 10:40:48;;;;;;;;;;;;;;;13.10;100.00;100782.00;5142095;27;19923;-65
2021/10/29 10:43:21;;;;;;;;;;;;;;;13.12;100.00;100770.94;5134396;27;19924;-64
2021/10/29 10:45:52;;;;;;;;;;;;;;;12.95;100.00;100767.91;5134235;27;19923;-65
2021/10/29 10:48:22;;;;;;;;;;;;;;;12.62;100.00;100764.47;5133924;27;19935;-64
2021/10/29 10:50:52;;;;;;;;;;;;;;;12.49;100.00;100764.75;5132364;27;19930;-65
2021/10/29 10:53:24;;;;;;;;;;;;;;;12.77;100.00;100755.94;5154014;27;19927;-65
2021/10/29 10:56:08;;;;;;;;;;;;;;;12.87;100.00;100760.41;5153513;27;20295;-65
2021/10/29 10:58:44;;;;;;;;;;;;;;;12.97;100.00;100760.44;5134592;27;19980;-67
2021/10/29 11:01:20;;;;;;;;;;;;;;;13.23;100.00;100759.94;5133375;27;19951;-66
2021/10/29 11:04:12;;;;;;;;;;;;;;;13.20;100.00;100757.47;5152151;27;19923;-68
2021/10/29 11:06:59;;;;;;;;;;;;;;;13.37;100.00;100762.28;5135037;27;19954;-68
2021/10/29 11:09:56;;;;;;;;;;;;;;;13.60;100.00;100747.50;5133217;27;19934;-68
2021/10/29 11:12:23;;;;;;;;;;;;;;;14.16;100.00;100744.00;5132481;27;20281;-68
2021/10/29 11:15:04;;;;;;;;;;;;;;;14.34;100.00;100744.06;5133163;27;19963;-69
2021/10/29 11:17:40;;;;;;;;;;;;;;;14.50;100.00;100740.69;5132940;27;19924;-69
2021/10/29 11:20:07;;;;;;;;;;;;;;;14.39;100.00;100724.47;5132439;27;19992;-69
2021/10/29 11:22:43;;;;;;;;;;;;;;;14.23;100.00;100720.53;5132977;27;19930;-69
2021/10/29 11:25:11;;;;;;;;;;;;;;;14.03;100.00;100717.00;5133268;27;19924;-69
2021/10/29 11:27:40;;;;;;;;;;;;;;;14.26;100.00;100715.75;5132988;27;20371;-69
2021/10/29 11:30:07;;;;;;;;;;;;;;;14.40;100.00;100707.09;5132179;27;19957;-69
2021/10/29 11:32:34;;;;;;;;;;;;;;;14.79;100.00;100706.06;5132850;27;20306;-69
2021/10/29 11:35:02;;;;;;;;;;;;;;;14.99;100.00;100715.91;5132726;27;19977;-69
2021/10/29 11:37:30;;;;;;;;;;;;;;;14.86;100.00;100709.94;5132594;27;19930;-69
2021/10/29 11:39:58;;;;;;;;;;;;;;;15.00;100.00;100703.91;5132700;27;19923;-69
2021/10/29 11:42:25;;;;;;;;;;;;;;;15.03;100.00;100705.50;5132218;27;19949;-68
2021/10/29 11:44:52;;;;;;;;;;;;;;;14.98;100.00;100707.81;5132785;27;20018;-69
2021/10/29 11:47:18;;;;;;;;;;;;;;;15.33;100.00;100693.31;5132231;27;20028;-69
2021/10/29 11:49:44;;;;;;;;;;;;;;;15.43;100.00;100695.13;5132385;27;20369;-69
2021/10/29 11:52:11;;;;;;;;;;;;;;;15.40;100.00;100694.41;5132306;27;19927;-69
2021/10/29 11:54:41;;;;;;;;;;;;;;;15.60;100.00;100690.66;5131791;27;20312;-69
2021/10/29 11:57:23;;;;;;;;;;;;;;;15.47;100.00;100680.97;5132340;27;19923;-69
2021/10/29 12:08:09;;;;;;;;;;;;;;;16.03;100.00;100672.50;5131003;27;19931;-69
2021/10/29 12:10:39;;;;;;;;;;;;;;;16.33;100.00;100659.34;5131687;28;20037;-69
2021/10/29 12:13:09;;;;;;;;;;;;;;;16.53;100.00;100655.31;5132169;28;19927;-69
2021/10/29 12:15:35;;;;;;;;;;;;;;;16.85;100.00;100656.44;5131992;28;19923;-69
2021/10/29 12:18:03;;;;;;;;;;;;;;;16.94;100.00;100648.25;5132054;28;19955;-69
2021/10/29 12:20:34;;;;;;;;;;;;;;;16.84;100.00;100645.66;5136986;27;20018;-69
2021/10/29 12:23:05;;;;;;;;;;;;;;;16.73;100.00;100641.34;5152583;27;19927;-69
2021/10/29 12:25:37;;;;;;;;;;;;;;;16.45;100.00;100644.31;5152867;27;20406;-68
2021/10/29 12:28:06;;;;;;;;;;;;;;;16.61;100.00;100638.03;5152561;27;20344;-69
2021/10/29 12:30:37;;;;;;;;;;;;;;;16.99;99.48;100635.75;5152133;27;19923;-69
2021/10/29 12:33:27;;;;;;;;;;;;;;;17.26;96.78;100638.38;5152480;27;19927;-68
2021/10/29 12:39:08;;;;;;;;;;;;;;;17.75;94.32;100621.88;5152533;27;20405;-68
2021/10/29 13:03:41;;;;;;;;;;;;;;;17.63;97.96;100612.28;5136849;27;19930;-68
2021/10/29 13:06:08;;;;;;;;;;;;;;;17.29;96.79;100605.09;5147191;27;19923;-68
2021/10/29 13:08:36;;;;;;;;;;;;;;;17.09;96.78;100604.56;5144236;27;19930;-68
2021/10/29 13:11:03;;;;;;;;;;;;;;;17.04;99.10;100602.34;5156322;27;20272;-68
2021/10/29 13:13:33;;;;;;;;;;;;;;;16.62;100.00;100614.22;5156313;27;19976;-68
2021/10/29 13:16:02;;;;;;;;;;;;;;;16.62;100.00;100608.75;5152182;27;19932;-74
2021/10/29 13:18:40;;;;;;;;;;;;;;;16.46;100.00;100594.00;5135749;27;19930;-74
2021/10/29 13:21:41;;;;;;;;;;;;;;;16.81;100.00;100597.50;5135613;27;19931;-74
2021/10/29 13:24:32;;;;;;;;;;;;;;;17.16;97.82;100594.66;5134907;27;19927;-76
2021/10/29 13:38:05;;;;;;;;;;;;;;;17.15;97.21;100588.28;5142904;27;20019;-74
2021/10/29 13:51:32;;;;;;;;;;;;;;;16.44;100.00;100586.97;5148538;27;19954;-75
2021/10/29 13:54:07;;;;;;;;;;;;;;;16.45;100.00;100589.53;5156027;27;19966;-75
2021/10/29 13:56:48;;;;;;;;;;;;;;;16.51;100.00;100585.25;5154670;27;19967;-75
2021/10/29 13:59:32;;;;;;;;;;;;;;;16.54;99.73;100584.91;5154165;27;19984;-75
2021/10/29 14:02:14;;;;;;;;;;;;;;;16.24;100.00;100588.06;5154573;27;20376;-74
2021/10/29 14:29:22;;;;;;;;;;;;;;;12.57;100.00;100581.59;5154012;27;19988;-75
2021/10/29 14:31:52;;;;;;;;;;;;;;;12.46;100.00;100579.88;5153581;27;19923;-74
2021/10/29 14:34:22;;;;;;;;;;;;;;;12.39;100.00;100571.41;5138356;27;19927;-75
2021/10/29 14:36:54;;;;;;;;;;;;;;;12.32;100.00;100572.97;5140404;27;19937;-75
2021/10/29 14:39:26;;;;;;;;;;;;;;;12.28;100.00;100579.69;5154481;27;19927;-74
2021/10/29 14:42:05;;;;;;;;;;;;;;;12.20;100.00;100577.66;5154019;27;19929;-74
2021/10/29 14:44:37;;;;;;;;;;;;;;;12.14;100.00;100571.91;5154582;27;20016;-74
2021/10/29 14:47:15;;;;;;;;;;;;;;;12.07;100.00;100570.75;5154568;27;19923;-76
2021/10/29 14:49:55;;;;;;;;;;;;;;;11.94;100.00;100568.25;5154415;27;19927;-75
2021/10/29 15:06:23;;;;;;;;;;;;;;;11.51;100.00;100568.31;5149035;27;19923;-75
2021/10/29 15:17:31;;;;;;;;;;;;;;;11.26;100.00;100564.16;5152074;27;19923;-73
2021/10/29 15:25:38;;;;;;;;;;;;;;;10.87;100.00;100559.31;5125066;27;19923;-74
2021/10/29 15:28:28;;;;;;;;;;;;;;;10.77;100.00;100571.97;5152152;27;20450;-75
2021/10/29 15:31:01;;;;;;;;;;;;;;;10.68;100.00;100581.72;5153271;27;19983;-75
2021/10/29 15:33:37;;;;;;;;;;;;;;;10.63;100.00;100575.81;5137040;27;20047;-75
2021/10/29 15:41:39;;;;;;;;;;;;;;;10.31;100.00;100573.91;5153148;27;19930;-76
2021/10/29 15:44:08;;;;;;;;;;;;;;;10.16;100.00;100575.19;5152427;27;19988;-75
2021/10/29 15:46:41;;;;;;;;;;;;;;;10.02;100.00;100570.88;5149495;27;19923;-75
2021/10/29 15:49:19;;;;;;;;;;;;;;;9.88;100.00;100566.59;5132008;27;19924;-74